»·PEaware :: SWA1917 KLAS-KSNA

SWA1917 :: KLAS-KSNA

FLIGHT INFORMATION

Flight Status: Arrived
Operator:
Southwest Airlines
More flights by this operator :: More flights under this callsign
Pilot: Ben F. (2808)
Aircraft: BOEING 737-800
(B738)
More flights by this aircraft type
Origin: KLAS McCarran Intl
United States
Destination: KSNA John Wayne-Orange Co
United States
More flights between these airports :: More routes between these airports
Route: +BOACH8 WHIGG FEYLA DSNEE3
File this flight plan on PilotEdge
Remarks:
Altitude:
(Current/Filed)
28,000ft
Speed:
(Current/Filed)
471kts
Departed: 03-Mar-18 09:42 AM
Arrived: 03-Mar-18 10:30 AM
Distance/Time
Traveled:
197nm/0:48
Distance/Time
To Go:
Arrived

Flight Plot

Page will automatically refresh every two minutes.

Flight plan parsing failed; only flown route is shown


Map Options




Map Legend


Flown Route
Filed Route
Departure Airport
Arrival Airport
Navaid (VOR, NDB)
Fix

Horizontal Profiles

Position Reports

Time Latitude Longitude Heading Altitude Ground
Speed
03-Mar-18 09:25 36.079559 -115.146220 354 2189ft 0kts
03-Mar-18 09:26 36.079559 -115.146220 354 2189ft 0kts
03-Mar-18 09:27 36.079559 -115.146220 354 2189ft 0kts
03-Mar-18 09:28 36.079559 -115.146220 354 2189ft 0kts
03-Mar-18 09:29 36.079559 -115.146220 354 2189ft 0kts
03-Mar-18 09:30 36.079559 -115.146220 354 2189ft 0kts
03-Mar-18 09:31 36.079559 -115.146220 354 2189ft 0kts
03-Mar-18 09:32 36.079559 -115.146220 354 2189ft 0kts
03-Mar-18 09:33 36.079559 -115.146220 354 2189ft 0kts
03-Mar-18 09:34 36.079559 -115.146220 354 2189ft 0kts
03-Mar-18 09:35 36.079559 -115.146220 354 2189ft 0kts
03-Mar-18 09:36 36.079559 -115.146220 354 2189ft 0kts
03-Mar-18 09:37 36.079559 -115.146220 354 2189ft 0kts
03-Mar-18 09:38 36.079253 -115.146187 354 2189ft 2kts
03-Mar-18 09:39 36.078695 -115.145553 279 2189ft 2kts
03-Mar-18 09:40 36.078688 -115.145324 265 2189ft 0kts
03-Mar-18 09:41 36.079007 -115.146766 288 2189ft 3kts
03-Mar-18 09:42 36.079077 -115.147160 257 2189ft 0kts
03-Mar-18 09:43 36.078596 -115.147902 255 2189ft 8kts
03-Mar-18 09:44 36.078771 -115.152789 271 2189ft 12kts
03-Mar-18 09:45 36.084135 -115.156402 337 2189ft 23kts
03-Mar-18 09:46 36.090784 -115.155815 24 2189ft 26kts
03-Mar-18 09:47 36.097164 -115.152163 24 2189ft 18kts
03-Mar-18 09:48 36.097500 -115.154197 203 2189ft 2kts
03-Mar-18 09:49 36.075240 -115.167201 204 3048ft 155kts
03-Mar-18 09:50 36.031151 -115.192206 203 5437ft 219kts
03-Mar-18 09:51 35.989193 -115.259169 239 7019ft 264kts
03-Mar-18 09:52 35.931931 -115.303878 197 8420ft 252kts
03-Mar-18 09:53 35.872507 -115.313434 189 11429ft 271kts
03-Mar-18 09:54 35.770986 -115.305348 180 14196ft 336kts
03-Mar-18 09:55 35.678914 -115.310948 215 17287ft 330kts
03-Mar-18 09:56 35.621159 -115.374347 225 19658ft 338kts
03-Mar-18 09:57 35.555603 -115.459811 228 22136ft 351kts
03-Mar-18 09:58 35.488466 -115.549854 228 24353ft 362kts
03-Mar-18 09:59 35.419710 -115.642702 228 26278ft 374kts
03-Mar-18 10:00 35.337549 -115.753215 228 28007ft 378kts
03-Mar-18 10:01 35.278593 -115.832107 228 28024ft 374kts
03-Mar-18 10:02 35.207934 -115.925569 226 28043ft 375kts
03-Mar-18 10:03 35.135176 -116.016882 226 28048ft 375kts
03-Mar-18 10:04 35.062621 -116.108465 226 28050ft 374kts
03-Mar-18 10:05 34.990112 -116.199473 226 28057ft 375kts
03-Mar-18 10:06 34.917050 -116.290796 226 28060ft 375kts
03-Mar-18 10:07 34.844796 -116.382314 227 28056ft 371kts
03-Mar-18 10:08 34.774415 -116.471787 227 27813ft 360kts
03-Mar-18 10:09 34.707020 -116.557253 227 25976ft 344kts
03-Mar-18 10:10 34.636102 -116.631176 221 24240ft 332kts
03-Mar-18 10:11 34.564855 -116.700468 221 22367ft 325kts
03-Mar-18 10:12 34.495310 -116.768958 223 20518ft 317kts
03-Mar-18 10:13 34.432723 -116.842337 225 18717ft 310kts
03-Mar-18 10:14 34.370828 -116.914344 225 16822ft 307kts
03-Mar-18 10:15 34.314392 -116.979537 225 16175ft 251kts
03-Mar-18 10:16 34.264579 -117.034793 217 14664ft 242kts
03-Mar-18 10:17 34.207074 -117.076900 214 13323ft 239kts
03-Mar-18 10:18 34.148872 -117.115486 208 12832ft 237kts
03-Mar-18 10:19 34.087878 -117.147465 208 12492ft 240kts
03-Mar-18 10:20 34.028201 -117.179227 209 12104ft 223kts
03-Mar-18 10:21 33.980841 -117.218505 229 11368ft 198kts
03-Mar-18 10:22 33.946302 -117.266441 230 10789ft 178kts
03-Mar-18 10:23 33.913790 -117.312319 231 10148ft 181kts
03-Mar-18 10:24 33.880842 -117.358877 231 9349ft 183kts
03-Mar-18 10:25 33.847413 -117.406019 230 8547ft 183kts
03-Mar-18 10:26 33.816389 -117.453756 243 7976ft 177kts
03-Mar-18 10:27 33.799757 -117.510586 264 7994ft 183kts
03-Mar-18 10:28 33.803329 -117.572546 272 7655ft 187kts
03-Mar-18 10:29 33.827062 -117.628302 302 6531ft 203kts
03-Mar-18 10:30 33.859620 -117.687194 299 4997ft 202kts
03-Mar-18 10:31 33.862647 -117.744503 239 3883ft 182kts
03-Mar-18 10:32 33.821979 -117.776096 207 2968ft 169kts
03-Mar-18 10:33 33.781430 -117.801756 207 2239ft 160kts
03-Mar-18 10:34 33.744349 -117.825301 207 1431ft 142kts
03-Mar-18 10:35 33.709876 -117.847162 207 730ft 138kts
03-Mar-18 10:36 33.676115 -117.868587 208 64ft 125kts
03-Mar-18 10:37 33.669133 -117.871550 118 64ft 0kts
03-Mar-18 10:38 33.670993 -117.869017 39 64ft 15kts
03-Mar-18 10:39 33.674814 -117.866045 27 64ft 12kts
03-Mar-18 10:40 33.674996 -117.865101 117 64ft 0kts
03-Mar-18 10:41 33.674996 -117.865101 117 64ft 0kts
03-Mar-18 10:42 33.674996 -117.865101 117 64ft 0kts
03-Mar-18 10:43 33.674996 -117.865101 117 64ft 0kts
03-Mar-18 10:44 33.674996 -117.865101 117 64ft 0kts
03-Mar-18 10:45 33.674996 -117.865101 117 64ft 0kts
03-Mar-18 10:46 33.674996 -117.865101 117 64ft 0kts
03-Mar-18 10:47 33.674996 -117.865101 117 64ft 0kts
03-Mar-18 10:48 33.674996 -117.865101 117 64ft 0kts
03-Mar-18 10:49 33.674996 -117.865101 117 64ft 0kts
03-Mar-18 10:50 33.674996 -117.865101 117 64ft 0kts
03-Mar-18 10:51 33.674996 -117.865101 117 64ft 0kts

Navigation Log

Ident Type
Flight plan parsing failed, navigation log unavailable